sensor_id;sensor_type;location;lat;lon;timestamp;P1;durP1;ratioP1;P2;durP2;ratioP2
31734;SDS011;18313;48.518;9.124;2022-07-09T00:01:19;6.85;;;2.03;;
31734;SDS011;18313;48.518;9.124;2022-07-09T00:03:46;5.57;;;2.58;;
31734;SDS011;18313;48.518;9.124;2022-07-09T00:06:14;6.50;;;1.88;;
31734;SDS011;18313;48.518;9.124;2022-07-09T00:08:41;4.03;;;2.00;;
31734;SDS011;18313;48.518;9.124;2022-07-09T00:11:08;5.57;;;1.90;;
31734;SDS011;18313;48.518;9.124;2022-07-09T00:13:35;4.70;;;2.00;;
31734;SDS011;18313;48.518;9.124;2022-07-09T00:16:03;4.10;;;2.08;;
31734;SDS011;18313;48.518;9.124;2022-07-09T00:18:30;5.15;;;2.05;;
31734;SDS011;18313;48.518;9.124;2022-07-09T00:20:58;4.50;;;2.17;;
31734;SDS011;18313;48.518;9.124;2022-07-09T00:23:25;5.55;;;2.20;;
31734;SDS011;18313;48.518;9.124;2022-07-09T00:25:52;5.32;;;2.08;;
31734;SDS011;18313;48.518;9.124;2022-07-09T00:28:19;5.72;;;2.20;;
31734;SDS011;18313;48.518;9.124;2022-07-09T00:30:46;4.65;;;2.10;;
31734;SDS011;18313;48.518;9.124;2022-07-09T00:33:13;5.90;;;2.60;;
31734;SDS011;18313;48.518;9.124;2022-07-09T00:35:40;5.80;;;2.22;;
31734;SDS011;18313;48.518;9.124;2022-07-09T00:38:07;6.95;;;2.25;;
31734;SDS011;18313;48.518;9.124;2022-07-09T00:40:34;4.38;;;2.05;;
31734;SDS011;18313;48.518;9.124;2022-07-09T00:43:02;4.65;;;2.10;;
31734;SDS011;18313;48.518;9.124;2022-07-09T00:45:29;6.25;;;2.50;;
31734;SDS011;18313;48.518;9.124;2022-07-09T00:47:56;8.95;;;2.65;;
31734;SDS011;18313;48.518;9.124;2022-07-09T00:50:23;7.50;;;3.10;;
31734;SDS011;18313;48.518;9.124;2022-07-09T00:52:50;5.10;;;2.25;;
31734;SDS011;18313;48.518;9.124;2022-07-09T00:55:17;10.10;;;2.75;;
31734;SDS011;18313;48.518;9.124;2022-07-09T00:57:45;5.80;;;2.72;;
31734;SDS011;18313;48.518;9.124;2022-07-09T01:00:12;7.65;;;3.60;;
31734;SDS011;18313;48.518;9.124;2022-07-09T01:02:40;5.70;;;2.25;;
31734;SDS011;18313;48.518;9.124;2022-07-09T01:05:08;8.02;;;3.10;;
31734;SDS011;18313;48.518;9.124;2022-07-09T01:07:35;7.13;;;2.42;;
31734;SDS011;18313;48.518;9.124;2022-07-09T01:10:03;5.60;;;2.22;;
31734;SDS011;18313;48.518;9.124;2022-07-09T01:12:30;6.93;;;2.75;;
31734;SDS011;18313;48.518;9.124;2022-07-09T01:14:58;6.40;;;2.60;;
31734;SDS011;18313;48.518;9.124;2022-07-09T01:17:25;4.70;;;2.50;;
31734;SDS011;18313;48.518;9.124;2022-07-09T01:19:53;4.40;;;2.28;;
31734;SDS011;18313;48.518;9.124;2022-07-09T01:22:20;4.32;;;2.30;;
31734;SDS011;18313;48.518;9.124;2022-07-09T01:24:47;6.03;;;2.50;;
31734;SDS011;18313;48.518;9.124;2022-07-09T01:27:16;4.28;;;2.60;;
31734;SDS011;18313;48.518;9.124;2022-07-09T01:29:44;4.05;;;2.30;;
31734;SDS011;18313;48.518;9.124;2022-07-09T01:32:16;7.03;;;2.70;;
31734;SDS011;18313;48.518;9.124;2022-07-09T01:34:43;6.80;;;2.50;;
31734;SDS011;18313;48.518;9.124;2022-07-09T01:37:10;7.97;;;2.72;;
31734;SDS011;18313;48.518;9.124;2022-07-09T01:39:37;4.75;;;2.50;;
31734;SDS011;18313;48.518;9.124;2022-07-09T01:42:18;3.85;;;2.40;;
31734;SDS011;18313;48.518;9.124;2022-07-09T01:44:47;5.15;;;2.90;;
31734;SDS011;18313;48.518;9.124;2022-07-09T01:47:17;4.30;;;2.15;;
31734;SDS011;18313;48.518;9.124;2022-07-09T01:49:44;6.25;;;2.45;;
31734;SDS011;18313;48.518;9.124;2022-07-09T01:52:11;4.43;;;2.28;;
31734;SDS011;18313;48.518;9.124;2022-07-09T01:54:38;4.55;;;2.50;;
31734;SDS011;18313;48.518;9.124;2022-07-09T01:57:05;3.92;;;2.20;;
31734;SDS011;18313;48.518;9.124;2022-07-09T01:59:32;4.88;;;2.13;;
31734;SDS011;18313;48.518;9.124;2022-07-09T02:01:59;5.22;;;2.60;;
31734;SDS011;18313;48.518;9.124;2022-07-09T02:04:28;3.33;;;1.90;;
31734;SDS011;18313;48.518;9.124;2022-07-09T02:06:55;5.65;;;2.38;;
31734;SDS011;18313;48.518;9.124;2022-07-09T02:09:22;5.40;;;2.20;;
31734;SDS011;18313;48.518;9.124;2022-07-09T02:11:49;3.50;;;2.30;;
31734;SDS011;18313;48.518;9.124;2022-07-09T02:14:17;6.18;;;2.47;;
31734;SDS011;18313;48.518;9.124;2022-07-09T02:16:44;5.97;;;2.63;;
31734;SDS011;18313;48.518;9.124;2022-07-09T02:19:11;5.60;;;2.22;;
31734;SDS011;18313;48.518;9.124;2022-07-09T02:21:38;4.80;;;2.63;;
31734;SDS011;18313;48.518;9.124;2022-07-09T02:24:05;5.80;;;2.50;;
31734;SDS011;18313;48.518;9.124;2022-07-09T02:26:32;7.03;;;3.10;;
31734;SDS011;18313;48.518;9.124;2022-07-09T02:29:00;7.53;;;2.97;;
31734;SDS011;18313;48.518;9.124;2022-07-09T02:31:27;5.18;;;2.53;;
31734;SDS011;18313;48.518;9.124;2022-07-09T02:33:54;5.35;;;2.60;;
31734;SDS011;18313;48.518;9.124;2022-07-09T02:36:22;3.90;;;2.30;;
31734;SDS011;18313;48.518;9.124;2022-07-09T02:38:49;5.85;;;2.63;;
31734;SDS011;18313;48.518;9.124;2022-07-09T02:41:16;4.00;;;2.22;;
31734;SDS011;18313;48.518;9.124;2022-07-09T02:43:45;5.75;;;2.58;;
31734;SDS011;18313;48.518;9.124;2022-07-09T02:46:12;6.35;;;2.53;;
31734;SDS011;18313;48.518;9.124;2022-07-09T02:48:39;5.18;;;2.40;;
31734;SDS011;18313;48.518;9.124;2022-07-09T02:51:06;3.95;;;2.30;;
31734;SDS011;18313;48.518;9.124;2022-07-09T02:53:33;3.03;;;2.35;;
31734;SDS011;18313;48.518;9.124;2022-07-09T02:56:00;6.22;;;3.03;;
31734;SDS011;18313;48.518;9.124;2022-07-09T02:58:27;4.75;;;2.40;;
31734;SDS011;18313;48.518;9.124;2022-07-09T03:00:54;5.82;;;2.50;;
31734;SDS011;18313;48.518;9.124;2022-07-09T03:03:21;9.90;;;2.80;;
31734;SDS011;18313;48.518;9.124;2022-07-09T03:05:50;5.85;;;2.60;;
31734;SDS011;18313;48.518;9.124;2022-07-09T03:08:17;6.45;;;2.85;;
31734;SDS011;18313;48.518;9.124;2022-07-09T03:10:44;6.15;;;2.50;;
31734;SDS011;18313;48.518;9.124;2022-07-09T03:13:12;4.85;;;2.42;;
31734;SDS011;18313;48.518;9.124;2022-07-09T03:15:39;7.10;;;3.10;;
31734;SDS011;18313;48.518;9.124;2022-07-09T03:18:06;6.03;;;2.70;;
31734;SDS011;18313;48.518;9.124;2022-07-09T03:20:35;5.25;;;2.85;;
31734;SDS011;18313;48.518;9.124;2022-07-09T03:23:03;5.20;;;3.03;;
31734;SDS011;18313;48.518;9.124;2022-07-09T03:25:31;4.95;;;3.00;;
31734;SDS011;18313;48.518;9.124;2022-07-09T03:27:59;4.90;;;2.58;;
31734;SDS011;18313;48.518;9.124;2022-07-09T03:30:26;4.72;;;2.92;;
31734;SDS011;18313;48.518;9.124;2022-07-09T03:32:53;9.30;;;3.13;;
31734;SDS011;18313;48.518;9.124;2022-07-09T03:35:20;5.97;;;2.80;;
31734;SDS011;18313;48.518;9.124;2022-07-09T03:37:47;5.88;;;3.08;;
31734;SDS011;18313;48.518;9.124;2022-07-09T03:40:14;8.70;;;3.20;;
31734;SDS011;18313;48.518;9.124;2022-07-09T03:42:41;4.85;;;2.70;;
31734;SDS011;18313;48.518;9.124;2022-07-09T03:45:08;4.40;;;2.65;;
31734;SDS011;18313;48.518;9.124;2022-07-09T03:47:35;4.00;;;2.60;;
31734;SDS011;18313;48.518;9.124;2022-07-09T03:50:03;4.65;;;2.75;;
31734;SDS011;18313;48.518;9.124;2022-07-09T03:52:30;6.95;;;2.90;;
31734;SDS011;18313;48.518;9.124;2022-07-09T03:54:57;8.20;;;2.70;;
31734;SDS011;18313;48.518;9.124;2022-07-09T03:57:24;4.35;;;2.88;;
31734;SDS011;18313;48.518;9.124;2022-07-09T03:59:51;4.50;;;2.92;;
31734;SDS011;18313;48.518;9.124;2022-07-09T04:02:18;5.15;;;3.03;;
31734;SDS011;18313;48.518;9.124;2022-07-09T04:04:45;4.97;;;2.72;;
31734;SDS011;18313;48.518;9.124;2022-07-09T04:07:12;11.75;;;3.60;;
31734;SDS011;18313;48.518;9.124;2022-07-09T04:09:40;7.28;;;2.88;;
31734;SDS011;18313;48.518;9.124;2022-07-09T04:12:07;5.10;;;3.30;;
31734;SDS011;18313;48.518;9.124;2022-07-09T04:14:34;7.00;;;3.03;;
31734;SDS011;18313;48.518;9.124;2022-07-09T04:17:01;6.30;;;2.88;;
31734;SDS011;18313;48.518;9.124;2022-07-09T04:19:28;5.82;;;3.03;;
31734;SDS011;18313;48.518;9.124;2022-07-09T04:21:56;5.57;;;2.70;;
31734;SDS011;18313;48.518;9.124;2022-07-09T04:24:23;4.45;;;2.70;;
31734;SDS011;18313;48.518;9.124;2022-07-09T04:26:50;5.30;;;2.50;;
31734;SDS011;18313;48.518;9.124;2022-07-09T04:29:17;7.57;;;2.67;;
31734;SDS011;18313;48.518;9.124;2022-07-09T04:31:44;6.68;;;2.65;;
31734;SDS011;18313;48.518;9.124;2022-07-09T04:34:11;5.80;;;2.92;;
31734;SDS011;18313;48.518;9.124;2022-07-09T04:36:38;5.15;;;2.70;;
31734;SDS011;18313;48.518;9.124;2022-07-09T04:39:05;6.68;;;3.00;;
31734;SDS011;18313;48.518;9.124;2022-07-09T04:41:32;4.50;;;2.53;;
31734;SDS011;18313;48.518;9.124;2022-07-09T04:44:00;6.18;;;2.83;;
31734;SDS011;18313;48.518;9.124;2022-07-09T04:46:27;6.65;;;2.92;;
31734;SDS011;18313;48.518;9.124;2022-07-09T04:48:57;6.32;;;2.80;;
31734;SDS011;18313;48.518;9.124;2022-07-09T04:51:24;7.78;;;2.70;;
31734;SDS011;18313;48.518;9.124;2022-07-09T04:53:51;6.40;;;3.38;;
31734;SDS011;18313;48.518;9.124;2022-07-09T04:56:18;8.07;;;3.15;;
31734;SDS011;18313;48.518;9.124;2022-07-09T04:58:45;5.72;;;2.75;;
31734;SDS011;18313;48.518;9.124;2022-07-09T05:01:18;6.10;;;2.90;;
31734;SDS011;18313;48.518;9.124;2022-07-09T05:03:47;4.28;;;2.83;;
31734;SDS011;18313;48.518;9.124;2022-07-09T05:06:16;5.93;;;2.83;;
31734;SDS011;18313;48.518;9.124;2022-07-09T05:08:44;7.00;;;2.53;;
31734;SDS011;18313;48.518;9.124;2022-07-09T05:11:12;5.68;;;2.90;;
31734;SDS011;18313;48.518;9.124;2022-07-09T05:13:44;5.30;;;3.20;;
31734;SDS011;18313;48.518;9.124;2022-07-09T05:16:12;7.60;;;3.20;;
31734;SDS011;18313;48.518;9.124;2022-07-09T05:18:40;7.90;;;3.08;;
31734;SDS011;18313;48.518;9.124;2022-07-09T05:21:07;5.05;;;2.67;;
31734;SDS011;18313;48.518;9.124;2022-07-09T05:23:34;6.80;;;2.60;;
31734;SDS011;18313;48.518;9.124;2022-07-09T05:26:01;8.18;;;3.13;;
31734;SDS011;18313;48.518;9.124;2022-07-09T05:28:29;6.50;;;2.80;;
31734;SDS011;18313;48.518;9.124;2022-07-09T05:30:56;5.22;;;2.80;;
31734;SDS011;18313;48.518;9.124;2022-07-09T05:33:43;6.90;;;2.63;;
31734;SDS011;18313;48.518;9.124;2022-07-09T05:36:16;8.65;;;2.92;;
31734;SDS011;18313;48.518;9.124;2022-07-09T05:38:44;4.93;;;2.50;;
31734;SDS011;18313;48.518;9.124;2022-07-09T05:41:11;5.32;;;2.67;;
31734;SDS011;18313;48.518;9.124;2022-07-09T05:43:41;7.25;;;2.72;;
31734;SDS011;18313;48.518;9.124;2022-07-09T05:46:08;5.65;;;2.88;;
31734;SDS011;18313;48.518;9.124;2022-07-09T05:48:35;7.95;;;2.78;;
31734;SDS011;18313;48.518;9.124;2022-07-09T05:51:03;5.68;;;2.85;;
31734;SDS011;18313;48.518;9.124;2022-07-09T05:53:30;6.57;;;3.00;;
31734;SDS011;18313;48.518;9.124;2022-07-09T05:55:58;5.28;;;2.50;;
31734;SDS011;18313;48.518;9.124;2022-07-09T05:58:26;6.10;;;2.47;;
31734;SDS011;18313;48.518;9.124;2022-07-09T06:00:53;4.78;;;2.40;;
31734;SDS011;18313;48.518;9.124;2022-07-09T06:03:21;4.95;;;2.50;;
31734;SDS011;18313;48.518;9.124;2022-07-09T06:05:48;5.22;;;2.50;;
31734;SDS011;18313;48.518;9.124;2022-07-09T06:08:15;5.97;;;2.35;;
31734;SDS011;18313;48.518;9.124;2022-07-09T06:10:42;4.32;;;2.13;;
31734;SDS011;18313;48.518;9.124;2022-07-09T06:13:09;6.18;;;2.80;;
31734;SDS011;18313;48.518;9.124;2022-07-09T06:15:36;4.80;;;2.13;;
31734;SDS011;18313;48.518;9.124;2022-07-09T06:18:03;6.47;;;2.13;;
31734;SDS011;18313;48.518;9.124;2022-07-09T06:20:30;6.60;;;1.95;;
31734;SDS011;18313;48.518;9.124;2022-07-09T06:23:04;4.63;;;2.13;;
31734;SDS011;18313;48.518;9.124;2022-07-09T06:25:32;6.78;;;2.25;;
31734;SDS011;18313;48.518;9.124;2022-07-09T06:27:59;5.10;;;1.80;;
31734;SDS011;18313;48.518;9.124;2022-07-09T06:30:26;5.20;;;1.98;;
31734;SDS011;18313;48.518;9.124;2022-07-09T06:32:53;5.35;;;2.13;;
31734;SDS011;18313;48.518;9.124;2022-07-09T06:35:20;5.57;;;1.95;;
31734;SDS011;18313;48.518;9.124;2022-07-09T06:37:47;6.75;;;1.80;;
31734;SDS011;18313;48.518;9.124;2022-07-09T06:40:14;6.82;;;2.28;;
31734;SDS011;18313;48.518;9.124;2022-07-09T06:42:41;4.10;;;1.90;;
31734;SDS011;18313;48.518;9.124;2022-07-09T06:45:09;6.22;;;1.60;;
31734;SDS011;18313;48.518;9.124;2022-07-09T06:47:37;4.05;;;1.60;;
31734;SDS011;18313;48.518;9.124;2022-07-09T06:50:09;3.10;;;1.60;;
31734;SDS011;18313;48.518;9.124;2022-07-09T06:52:37;6.57;;;1.80;;
31734;SDS011;18313;48.518;9.124;2022-07-09T06:55:04;6.43;;;1.70;;
31734;SDS011;18313;48.518;9.124;2022-07-09T06:57:32;6.60;;;1.70;;
31734;SDS011;18313;48.518;9.124;2022-07-09T07:00:00;7.07;;;1.80;;
31734;SDS011;18313;48.518;9.124;2022-07-09T07:02:28;4.65;;;1.50;;
31734;SDS011;18313;48.518;9.124;2022-07-09T07:04:55;4.80;;;1.38;;
31734;SDS011;18313;48.518;9.124;2022-07-09T07:07:22;4.45;;;1.77;;
31734;SDS011;18313;48.518;9.124;2022-07-09T07:09:49;5.30;;;1.50;;
31734;SDS011;18313;48.518;9.124;2022-07-09T07:12:17;4.03;;;1.50;;
31734;SDS011;18313;48.518;9.124;2022-07-09T07:14:44;5.32;;;1.73;;
31734;SDS011;18313;48.518;9.124;2022-07-09T07:17:11;6.80;;;2.55;;
31734;SDS011;18313;48.518;9.124;2022-07-09T07:19:38;5.65;;;1.63;;
31734;SDS011;18313;48.518;9.124;2022-07-09T07:22:05;6.32;;;1.45;;
31734;SDS011;18313;48.518;9.124;2022-07-09T07:24:32;3.60;;;1.50;;
31734;SDS011;18313;48.518;9.124;2022-07-09T07:26:59;6.80;;;1.60;;
31734;SDS011;18313;48.518;9.124;2022-07-09T07:29:26;5.35;;;1.63;;
31734;SDS011;18313;48.518;9.124;2022-07-09T07:31:54;4.88;;;1.42;;
31734;SDS011;18313;48.518;9.124;2022-07-09T07:34:23;4.85;;;1.80;;
31734;SDS011;18313;48.518;9.124;2022-07-09T07:36:51;5.47;;;1.60;;
31734;SDS011;18313;48.518;9.124;2022-07-09T07:39:18;4.95;;;1.70;;
31734;SDS011;18313;48.518;9.124;2022-07-09T07:41:48;4.40;;;1.48;;
31734;SDS011;18313;48.518;9.124;2022-07-09T07:44:16;3.55;;;1.50;;
31734;SDS011;18313;48.518;9.124;2022-07-09T07:46:43;5.68;;;1.48;;
31734;SDS011;18313;48.518;9.124;2022-07-09T07:49:10;5.10;;;1.40;;
31734;SDS011;18313;48.518;9.124;2022-07-09T07:51:37;5.55;;;1.40;;
31734;SDS011;18313;48.518;9.124;2022-07-09T07:54:04;4.90;;;1.40;;
31734;SDS011;18313;48.518;9.124;2022-07-09T07:56:31;4.97;;;1.42;;
31734;SDS011;18313;48.518;9.124;2022-07-09T07:59:00;4.00;;;1.40;;
31734;SDS011;18313;48.518;9.124;2022-07-09T08:01:27;4.50;;;1.27;;
31734;SDS011;18313;48.518;9.124;2022-07-09T08:03:54;6.20;;;1.63;;
31734;SDS011;18313;48.518;9.124;2022-07-09T08:06:21;6.15;;;1.35;;
31734;SDS011;18313;48.518;9.124;2022-07-09T08:08:50;5.50;;;1.58;;
31734;SDS011;18313;48.518;9.124;2022-07-09T08:11:17;5.15;;;1.30;;
31734;SDS011;18313;48.518;9.124;2022-07-09T08:13:44;8.20;;;2.10;;
31734;SDS011;18313;48.518;9.124;2022-07-09T08:16:11;3.97;;;1.20;;
31734;SDS011;18313;48.518;9.124;2022-07-09T08:18:38;5.35;;;1.50;;
31734;SDS011;18313;48.518;9.124;2022-07-09T08:21:07;4.30;;;1.30;;
31734;SDS011;18313;48.518;9.124;2022-07-09T08:23:34;5.20;;;1.30;;
31734;SDS011;18313;48.518;9.124;2022-07-09T08:26:18;4.32;;;1.30;;
31734;SDS011;18313;48.518;9.124;2022-07-09T08:28:56;6.25;;;1.33;;
31734;SDS011;18313;48.518;9.124;2022-07-09T08:31:23;5.22;;;1.85;;
31734;SDS011;18313;48.518;9.124;2022-07-09T08:33:50;3.92;;;1.25;;
31734;SDS011;18313;48.518;9.124;2022-07-09T08:36:17;7.60;;;1.40;;
31734;SDS011;18313;48.518;9.124;2022-07-09T08:38:45;5.50;;;1.23;;
31734;SDS011;18313;48.518;9.124;2022-07-09T08:41:13;4.55;;;1.10;;
31734;SDS011;18313;48.518;9.124;2022-07-09T08:43:51;7.00;;;1.17;;
31734;SDS011;18313;48.518;9.124;2022-07-09T08:46:19;3.92;;;1.20;;
31734;SDS011;18313;48.518;9.124;2022-07-09T08:48:47;3.65;;;1.10;;
31734;SDS011;18313;48.518;9.124;2022-07-09T08:51:15;5.53;;;1.40;;
31734;SDS011;18313;48.518;9.124;2022-07-09T08:53:44;3.97;;;1.40;;
31734;SDS011;18313;48.518;9.124;2022-07-09T08:56:11;3.95;;;1.08;;
31734;SDS011;18313;48.518;9.124;2022-07-09T08:58:39;5.40;;;1.48;;
31734;SDS011;18313;48.518;9.124;2022-07-09T09:01:06;3.30;;;1.30;;
31734;SDS011;18313;48.518;9.124;2022-07-09T09:03:38;5.30;;;1.23;;
31734;SDS011;18313;48.518;9.124;2022-07-09T09:06:06;3.90;;;1.00;;
31734;SDS011;18313;48.518;9.124;2022-07-09T09:08:36;3.75;;;1.38;;
31734;SDS011;18313;48.518;9.124;2022-07-09T09:11:12;3.33;;;0.93;;
31734;SDS011;18313;48.518;9.124;2022-07-09T09:13:47;4.30;;;1.02;;
31734;SDS011;18313;48.518;9.124;2022-07-09T09:16:15;4.05;;;1.08;;
31734;SDS011;18313;48.518;9.124;2022-07-09T09:18:44;4.75;;;1.23;;
31734;SDS011;18313;48.518;9.124;2022-07-09T09:21:16;4.72;;;1.10;;
31734;SDS011;18313;48.518;9.124;2022-07-09T09:23:46;4.47;;;1.00;;
31734;SDS011;18313;48.518;9.124;2022-07-09T09:26:16;4.75;;;1.05;;
31734;SDS011;18313;48.518;9.124;2022-07-09T09:28:48;3.47;;;1.00;;
31734;SDS011;18313;48.518;9.124;2022-07-09T09:31:27;5.05;;;1.10;;
31734;SDS011;18313;48.518;9.124;2022-07-09T09:36:36;4.25;;;0.80;;
31734;SDS011;18313;48.518;9.124;2022-07-09T09:41:51;3.97;;;0.90;;
31734;SDS011;18313;48.518;9.124;2022-07-09T09:46:55;2.50;;;0.82;;
31734;SDS011;18313;48.518;9.124;2022-07-09T09:49:23;2.92;;;0.70;;
31734;SDS011;18313;48.518;9.124;2022-07-09T09:54:20;4.13;;;0.80;;
31734;SDS011;18313;48.518;9.124;2022-07-09T09:56:49;2.38;;;0.73;;
31734;SDS011;18313;48.518;9.124;2022-07-09T09:59:16;1.63;;;0.60;;
31734;SDS011;18313;48.518;9.124;2022-07-09T10:01:44;4.03;;;0.90;;
31734;SDS011;18313;48.518;9.124;2022-07-09T10:04:13;3.78;;;0.90;;
31734;SDS011;18313;48.518;9.124;2022-07-09T10:06:45;4.03;;;0.80;;
31734;SDS011;18313;48.518;9.124;2022-07-09T10:09:13;3.60;;;0.80;;
31734;SDS011;18313;48.518;9.124;2022-07-09T10:11:45;2.10;;;0.80;;
31734;SDS011;18313;48.518;9.124;2022-07-09T10:14:14;3.33;;;0.82;;
31734;SDS011;18313;48.518;9.124;2022-07-09T10:16:43;1.25;;;0.60;;
31734;SDS011;18313;48.518;9.124;2022-07-09T10:19:10;2.33;;;0.80;;
31734;SDS011;18313;48.518;9.124;2022-07-09T10:21:50;2.17;;;0.77;;
31734;SDS011;18313;48.518;9.124;2022-07-09T10:24:28;2.75;;;0.80;;
31734;SDS011;18313;48.518;9.124;2022-07-09T10:29:32;2.97;;;0.77;;
31734;SDS011;18313;48.518;9.124;2022-07-09T10:32:01;5.30;;;0.73;;
31734;SDS011;18313;48.518;9.124;2022-07-09T10:40:19;3.00;;;0.70;;
31734;SDS011;18313;48.518;9.124;2022-07-09T10:42:59;2.45;;;0.70;;
31734;SDS011;18313;48.518;9.124;2022-07-09T10:45:34;2.85;;;0.70;;
31734;SDS011;18313;48.518;9.124;2022-07-09T10:48:12;1.02;;;0.50;;
31734;SDS011;18313;48.518;9.124;2022-07-09T10:50:41;1.75;;;0.60;;
31734;SDS011;18313;48.518;9.124;2022-07-09T10:53:10;1.77;;;0.63;;
31734;SDS011;18313;48.518;9.124;2022-07-09T10:55:41;2.60;;;0.70;;
31734;SDS011;18313;48.518;9.124;2022-07-09T10:58:18;1.23;;;0.40;;
31734;SDS011;18313;48.518;9.124;2022-07-09T11:00:59;1.65;;;0.50;;
31734;SDS011;18313;48.518;9.124;2022-07-09T11:03:28;1.65;;;0.50;;
31734;SDS011;18313;48.518;9.124;2022-07-09T11:05:56;2.88;;;0.70;;
31734;SDS011;18313;48.518;9.124;2022-07-09T11:08:24;1.52;;;0.60;;
31734;SDS011;18313;48.518;9.124;2022-07-09T11:10:51;2.88;;;0.80;;
31734;SDS011;18313;48.518;9.124;2022-07-09T11:13:22;3.08;;;0.77;;
31734;SDS011;18313;48.518;9.124;2022-07-09T11:15:57;3.28;;;0.90;;
31734;SDS011;18313;48.518;9.124;2022-07-09T11:18:26;1.95;;;0.80;;
31734;SDS011;18313;48.518;9.124;2022-07-09T11:20:54;2.47;;;0.82;;
31734;SDS011;18313;48.518;9.124;2022-07-09T11:23:21;2.05;;;0.73;;
31734;SDS011;18313;48.518;9.124;2022-07-09T11:25:48;2.63;;;0.70;;
31734;SDS011;18313;48.518;9.124;2022-07-09T11:28:19;2.67;;;0.77;;
31734;SDS011;18313;48.518;9.124;2022-07-09T11:30:57;2.95;;;0.93;;
31734;SDS011;18313;48.518;9.124;2022-07-09T11:33:27;3.83;;;0.80;;
31734;SDS011;18313;48.518;9.124;2022-07-09T11:36:15;2.90;;;0.90;;
31734;SDS011;18313;48.518;9.124;2022-07-09T11:38:49;3.97;;;0.98;;
31734;SDS011;18313;48.518;9.124;2022-07-09T11:41:19;2.80;;;0.88;;
31734;SDS011;18313;48.518;9.124;2022-07-09T11:43:50;3.85;;;0.90;;
31734;SDS011;18313;48.518;9.124;2022-07-09T11:46:18;4.32;;;1.35;;
31734;SDS011;18313;48.518;9.124;2022-07-09T11:48:50;3.38;;;0.80;;
31734;SDS011;18313;48.518;9.124;2022-07-09T11:51:31;4.25;;;0.80;;
31734;SDS011;18313;48.518;9.124;2022-07-09T11:53:59;2.65;;;0.80;;
31734;SDS011;18313;48.518;9.124;2022-07-09T11:56:27;1.98;;;0.70;;
31734;SDS011;18313;48.518;9.124;2022-07-09T11:59:05;3.90;;;0.80;;
31734;SDS011;18313;48.518;9.124;2022-07-09T12:01:32;3.45;;;1.10;;
31734;SDS011;18313;48.518;9.124;2022-07-09T12:04:00;3.05;;;0.90;;
31734;SDS011;18313;48.518;9.124;2022-07-09T12:06:27;3.50;;;0.80;;
31734;SDS011;18313;48.518;9.124;2022-07-09T12:09:01;2.45;;;0.75;;
31734;SDS011;18313;48.518;9.124;2022-07-09T12:11:31;2.60;;;0.80;;
31734;SDS011;18313;48.518;9.124;2022-07-09T12:13:58;1.92;;;0.80;;
31734;SDS011;18313;48.518;9.124;2022-07-09T12:16:25;2.78;;;0.90;;
31734;SDS011;18313;48.518;9.124;2022-07-09T12:18:52;2.78;;;0.80;;
31734;SDS011;18313;48.518;9.124;2022-07-09T12:21:20;1.88;;;0.80;;
31734;SDS011;18313;48.518;9.124;2022-07-09T12:23:47;3.05;;;0.90;;
31734;SDS011;18313;48.518;9.124;2022-07-09T12:26:14;2.63;;;0.90;;
31734;SDS011;18313;48.518;9.124;2022-07-09T12:28:41;5.35;;;1.05;;
31734;SDS011;18313;48.518;9.124;2022-07-09T12:31:08;5.30;;;0.90;;
31734;SDS011;18313;48.518;9.124;2022-07-09T12:33:36;1.88;;;0.60;;
31734;SDS011;18313;48.518;9.124;2022-07-09T12:36:03;2.63;;;0.82;;
31734;SDS011;18313;48.518;9.124;2022-07-09T12:38:31;2.78;;;0.70;;
31734;SDS011;18313;48.518;9.124;2022-07-09T12:40:59;2.60;;;0.80;;
31734;SDS011;18313;48.518;9.124;2022-07-09T12:43:26;3.08;;;0.93;;
31734;SDS011;18313;48.518;9.124;2022-07-09T12:45:53;2.80;;;0.95;;
31734;SDS011;18313;48.518;9.124;2022-07-09T12:48:20;2.67;;;0.70;;
31734;SDS011;18313;48.518;9.124;2022-07-09T12:50:48;3.40;;;0.80;;
31734;SDS011;18313;48.518;9.124;2022-07-09T12:53:15;2.75;;;0.90;;
31734;SDS011;18313;48.518;9.124;2022-07-09T12:55:42;4.13;;;1.33;;
31734;SDS011;18313;48.518;9.124;2022-07-09T12:58:28;2.30;;;0.70;;
31734;SDS011;18313;48.518;9.124;2022-07-09T13:00:55;3.13;;;0.70;;
31734;SDS011;18313;48.518;9.124;2022-07-09T13:03:22;2.60;;;0.80;;
31734;SDS011;18313;48.518;9.124;2022-07-09T13:05:49;4.18;;;0.80;;
31734;SDS011;18313;48.518;9.124;2022-07-09T13:08:19;2.70;;;0.80;;
31734;SDS011;18313;48.518;9.124;2022-07-09T13:10:47;1.88;;;0.60;;
31734;SDS011;18313;48.518;9.124;2022-07-09T13:13:14;1.92;;;0.70;;
31734;SDS011;18313;48.518;9.124;2022-07-09T13:15:43;2.42;;;0.90;;
31734;SDS011;18313;48.518;9.124;2022-07-09T13:18:10;4.95;;;0.88;;
31734;SDS011;18313;48.518;9.124;2022-07-09T13:20:38;4.00;;;0.90;;
31734;SDS011;18313;48.518;9.124;2022-07-09T13:23:11;2.53;;;0.80;;
31734;SDS011;18313;48.518;9.124;2022-07-09T13:25:38;4.05;;;0.90;;
31734;SDS011;18313;48.518;9.124;2022-07-09T13:28:06;1.02;;;0.63;;
31734;SDS011;18313;48.518;9.124;2022-07-09T13:30:33;2.13;;;0.80;;
31734;SDS011;18313;48.518;9.124;2022-07-09T13:33:01;2.67;;;0.77;;
31734;SDS011;18313;48.518;9.124;2022-07-09T13:35:28;2.38;;;0.95;;
31734;SDS011;18313;48.518;9.124;2022-07-09T13:37:55;3.88;;;1.20;;
31734;SDS011;18313;48.518;9.124;2022-07-09T13:40:22;1.70;;;0.80;;
31734;SDS011;18313;48.518;9.124;2022-07-09T13:42:49;1.80;;;0.80;;
31734;SDS011;18313;48.518;9.124;2022-07-09T13:45:16;2.65;;;1.00;;
31734;SDS011;18313;48.518;9.124;2022-07-09T13:47:43;4.45;;;1.00;;
31734;SDS011;18313;48.518;9.124;2022-07-09T13:50:11;3.13;;;1.05;;
31734;SDS011;18313;48.518;9.124;2022-07-09T13:52:44;5.05;;;1.00;;
31734;SDS011;18313;48.518;9.124;2022-07-09T13:55:13;3.30;;;0.95;;
31734;SDS011;18313;48.518;9.124;2022-07-09T13:57:40;4.38;;;1.10;;
31734;SDS011;18313;48.518;9.124;2022-07-09T14:00:08;2.08;;;0.90;;
31734;SDS011;18313;48.518;9.124;2022-07-09T14:02:36;3.40;;;1.20;;
31734;SDS011;18313;48.518;9.124;2022-07-09T14:05:03;2.55;;;0.90;;
31734;SDS011;18313;48.518;9.124;2022-07-09T14:07:31;2.70;;;0.93;;
31734;SDS011;18313;48.518;9.124;2022-07-09T14:09:58;2.55;;;0.80;;
31734;SDS011;18313;48.518;9.124;2022-07-09T14:12:25;3.78;;;0.90;;
31734;SDS011;18313;48.518;9.124;2022-07-09T14:14:53;2.03;;;0.70;;
31734;SDS011;18313;48.518;9.124;2022-07-09T14:17:20;3.83;;;0.88;;
31734;SDS011;18313;48.518;9.124;2022-07-09T14:19:47;4.60;;;1.10;;
31734;SDS011;18313;48.518;9.124;2022-07-09T14:22:14;3.42;;;0.88;;
31734;SDS011;18313;48.518;9.124;2022-07-09T14:24:41;3.08;;;0.90;;
31734;SDS011;18313;48.518;9.124;2022-07-09T14:27:08;3.28;;;0.90;;
31734;SDS011;18313;48.518;9.124;2022-07-09T14:29:44;2.35;;;0.80;;
31734;SDS011;18313;48.518;9.124;2022-07-09T14:32:11;3.75;;;1.42;;
31734;SDS011;18313;48.518;9.124;2022-07-09T14:34:38;2.38;;;0.80;;
31734;SDS011;18313;48.518;9.124;2022-07-09T14:37:05;2.92;;;0.90;;
31734;SDS011;18313;48.518;9.124;2022-07-09T14:39:33;3.95;;;0.90;;
31734;SDS011;18313;48.518;9.124;2022-07-09T14:42:00;1.98;;;0.90;;
31734;SDS011;18313;48.518;9.124;2022-07-09T14:44:27;2.65;;;0.80;;
31734;SDS011;18313;48.518;9.124;2022-07-09T14:46:57;3.72;;;0.90;;
31734;SDS011;18313;48.518;9.124;2022-07-09T14:49:27;4.43;;;1.10;;
31734;SDS011;18313;48.518;9.124;2022-07-09T14:51:55;1.83;;;0.80;;
31734;SDS011;18313;48.518;9.124;2022-07-09T14:54:22;3.85;;;0.95;;
31734;SDS011;18313;48.518;9.124;2022-07-09T14:56:49;4.68;;;1.00;;
31734;SDS011;18313;48.518;9.124;2022-07-09T14:59:16;2.88;;;0.80;;
31734;SDS011;18313;48.518;9.124;2022-07-09T15:01:46;3.03;;;0.88;;
31734;SDS011;18313;48.518;9.124;2022-07-09T15:04:14;2.17;;;0.73;;
31734;SDS011;18313;48.518;9.124;2022-07-09T15:06:43;3.75;;;0.90;;
31734;SDS011;18313;48.518;9.124;2022-07-09T15:09:10;1.95;;;0.90;;
31734;SDS011;18313;48.518;9.124;2022-07-09T15:11:37;2.70;;;0.85;;
31734;SDS011;18313;48.518;9.124;2022-07-09T15:14:08;1.80;;;1.00;;